sensor_id;sensor_type;location;lat;lon;timestamp;pressure;altitude;pressure_sealevel;temperature;humidity
35419;BME280;21525;41.240;16.500;2023-04-03T00:00:11;100455.16;;;22.83;75.07
35419;BME280;21525;41.240;16.500;2023-04-03T00:02:36;100449.53;;;23.25;72.84
35419;BME280;21525;41.240;16.500;2023-04-03T00:05:02;100450.31;;;22.62;72.74
35419;BME280;21525;41.240;16.500;2023-04-03T00:07:30;100448.47;;;22.37;73.42
35419;BME280;21525;41.240;16.500;2023-04-03T00:09:55;100459.50;;;22.84;72.28
35419;BME280;21525;41.240;16.500;2023-04-03T00:12:21;100449.72;;;22.32;74.53
35419;BME280;21525;41.240;16.500;2023-04-03T00:14:47;100445.41;;;22.96;70.85
35419;BME280;21525;41.240;16.500;2023-04-03T00:17:12;100449.16;;;22.66;72.68
35419;BME280;21525;41.240;16.500;2023-04-03T00:19:38;100443.44;;;22.60;71.55
35419;BME280;21525;41.240;16.500;2023-04-03T00:22:04;100425.13;;;22.82;72.16
35419;BME280;21525;41.240;16.500;2023-04-03T00:24:29;100445.47;;;22.42;73.37
35419;BME280;21525;41.240;16.500;2023-04-03T00:26:55;100441.06;;;22.55;73.39
35419;BME280;21525;41.240;16.500;2023-04-03T00:29:21;100440.41;;;22.39;74.27
35419;BME280;21525;41.240;16.500;2023-04-03T00:31:47;100431.41;;;23.06;69.00
35419;BME280;21525;41.240;16.500;2023-04-03T00:34:12;100429.78;;;22.78;70.60
35419;BME280;21525;41.240;16.500;2023-04-03T00:36:38;100435.63;;;22.31;73.42
35419;BME280;21525;41.240;16.500;2023-04-03T00:39:04;100434.03;;;22.29;73.42
35419;BME280;21525;41.240;16.500;2023-04-03T00:41:30;100422.81;;;22.51;71.99
35419;BME280;21525;41.240;16.500;2023-04-03T00:43:55;100414.41;;;22.71;72.28
35419;BME280;21525;41.240;16.500;2023-04-03T00:46:21;100416.44;;;22.28;74.45
35419;BME280;21525;41.240;16.500;2023-04-03T00:48:47;100414.41;;;22.71;72.42
35419;BME280;21525;41.240;16.500;2023-04-03T00:51:25;100407.53;;;22.29;74.96
35419;BME280;21525;41.240;16.500;2023-04-03T00:53:55;100411.47;;;22.49;72.85
35419;BME280;21525;41.240;16.500;2023-04-03T00:56:24;100402.97;;;22.43;74.07
35419;BME280;21525;41.240;16.500;2023-04-03T00:58:56;100407.97;;;22.48;72.15
35419;BME280;21525;41.240;16.500;2023-04-03T01:01:26;100390.69;;;22.42;72.35
35419;BME280;21525;41.240;16.500;2023-04-03T01:03:54;100396.94;;;21.75;77.22
35419;BME280;21525;41.240;16.500;2023-04-03T01:06:26;100397.41;;;21.94;78.95
35419;BME280;21525;41.240;16.500;2023-04-03T01:08:53;100401.94;;;21.65;79.08
35419;BME280;21525;41.240;16.500;2023-04-03T01:11:20;100385.78;;;21.97;75.33
35419;BME280;21525;41.240;16.500;2023-04-03T01:13:47;100390.19;;;22.10;74.09
35419;BME280;21525;41.240;16.500;2023-04-03T01:16:14;100387.28;;;22.28;72.91
35419;BME280;21525;41.240;16.500;2023-04-03T01:18:41;100387.78;;;22.07;74.75
35419;BME280;21525;41.240;16.500;2023-04-03T01:24:33;100379.00;;;22.85;70.50
35419;BME280;21525;41.240;16.500;2023-04-03T01:27:03;100372.03;;;22.44;69.23
35419;BME280;21525;41.240;16.500;2023-04-03T01:29:29;100358.81;;;22.57;67.11
35419;BME280;21525;41.240;16.500;2023-04-03T01:31:57;100353.28;;;22.34;67.32
35419;BME280;21525;41.240;16.500;2023-04-03T01:34:24;100350.50;;;22.23;69.23
35419;BME280;21525;41.240;16.500;2023-04-03T01:36:51;100345.44;;;22.45;69.18
35419;BME280;21525;41.240;16.500;2023-04-03T01:39:17;100335.16;;;22.41;67.94
35419;BME280;21525;41.240;16.500;2023-04-03T01:41:43;100342.69;;;22.60;65.77
35419;BME280;21525;41.240;16.500;2023-04-03T01:44:14;100335.59;;;22.35;66.65
35419;BME280;21525;41.240;16.500;2023-04-03T01:46:40;100329.03;;;22.78;65.91
35419;BME280;21525;41.240;16.500;2023-04-03T01:49:08;100328.69;;;22.32;66.40
35419;BME280;21525;41.240;16.500;2023-04-03T01:51:34;100327.81;;;22.06;69.12
35419;BME280;21525;41.240;16.500;2023-04-03T01:54:00;100324.97;;;21.95;69.84
35419;BME280;21525;41.240;16.500;2023-04-03T01:56:26;100321.50;;;22.34;68.54
35419;BME280;21525;41.240;16.500;2023-04-03T01:58:52;100323.13;;;22.10;69.26
35419;BME280;21525;41.240;16.500;2023-04-03T02:01:18;100323.56;;;22.04;70.90
35419;BME280;21525;41.240;16.500;2023-04-03T02:03:44;100317.41;;;22.03;71.38
35419;BME280;21525;41.240;16.500;2023-04-03T02:06:10;100313.63;;;22.20;72.23
35419;BME280;21525;41.240;16.500;2023-04-03T02:08:36;100301.31;;;22.06;72.98
35419;BME280;21525;41.240;16.500;2023-04-03T02:11:02;100298.88;;;22.03;74.01
35419;BME280;21525;41.240;16.500;2023-04-03T02:13:27;100290.97;;;22.41;71.04
35419;BME280;21525;41.240;16.500;2023-04-03T02:15:53;100295.50;;;22.52;71.24
35419;BME280;21525;41.240;16.500;2023-04-03T02:18:19;100304.97;;;21.37;77.72
35419;BME280;21525;41.240;16.500;2023-04-03T02:20:46;100292.31;;;21.82;73.33
35419;BME280;21525;41.240;16.500;2023-04-03T02:23:12;100289.28;;;21.61;73.20
35419;BME280;21525;41.240;16.500;2023-04-03T02:25:37;100284.56;;;22.06;71.07
35419;BME280;21525;41.240;16.500;2023-04-03T02:28:03;100261.31;;;21.97;71.37
35419;BME280;21525;41.240;16.500;2023-04-03T02:30:30;100271.56;;;21.76;72.55
35419;BME280;21525;41.240;16.500;2023-04-03T02:32:56;100284.47;;;21.80;73.60
35419;BME280;21525;41.240;16.500;2023-04-03T02:35:22;100275.47;;;21.83;71.03
35419;BME280;21525;41.240;16.500;2023-04-03T02:37:48;100278.44;;;22.31;70.56
35419;BME280;21525;41.240;16.500;2023-04-03T02:40:14;100270.38;;;22.20;69.36
35419;BME280;21525;41.240;16.500;2023-04-03T02:42:40;100265.84;;;22.34;69.01
35419;BME280;21525;41.240;16.500;2023-04-03T02:45:06;100262.34;;;21.82;72.42
35419;BME280;21525;41.240;16.500;2023-04-03T02:47:32;100266.63;;;21.97;71.69
35419;BME280;21525;41.240;16.500;2023-04-03T02:49:58;100260.94;;;22.54;67.86
35419;BME280;21525;41.240;16.500;2023-04-03T02:52:23;100264.88;;;21.70;74.09
35419;BME280;21525;41.240;16.500;2023-04-03T02:54:52;100250.50;;;21.74;73.56
35419;BME280;21525;41.240;16.500;2023-04-03T02:57:17;100246.66;;;21.66;73.41
35419;BME280;21525;41.240;16.500;2023-04-03T02:59:45;100246.34;;;21.70;73.87
35419;BME280;21525;41.240;16.500;2023-04-03T03:02:11;100245.16;;;22.27;70.71
35419;BME280;21525;41.240;16.500;2023-04-03T03:04:37;100241.41;;;21.25;75.59
35419;BME280;21525;41.240;16.500;2023-04-03T03:07:03;100235.09;;;21.67;74.50
35419;BME280;21525;41.240;16.500;2023-04-03T03:09:29;100231.81;;;21.63;74.84
35419;BME280;21525;41.240;16.500;2023-04-03T03:11:55;100214.53;;;21.58;75.09
35419;BME280;21525;41.240;16.500;2023-04-03T03:14:22;100217.06;;;22.50;68.88
35419;BME280;21525;41.240;16.500;2023-04-03T03:16:47;100214.97;;;22.29;70.97
35419;BME280;21525;41.240;16.500;2023-04-03T03:19:13;100212.72;;;22.10;71.89
35419;BME280;21525;41.240;16.500;2023-04-03T03:21:39;100214.56;;;21.70;73.85
35419;BME280;21525;41.240;16.500;2023-04-03T03:24:05;100204.69;;;21.60;74.13
35419;BME280;21525;41.240;16.500;2023-04-03T03:26:32;100201.66;;;21.66;73.72
35419;BME280;21525;41.240;16.500;2023-04-03T03:28:58;100202.00;;;21.99;71.68
35419;BME280;21525;41.240;16.500;2023-04-03T03:31:24;100202.78;;;22.27;68.71
35419;BME280;21525;41.240;16.500;2023-04-03T03:33:49;100197.06;;;22.33;69.47
35419;BME280;21525;41.240;16.500;2023-04-03T03:36:15;100192.19;;;22.27;69.83
35419;BME280;21525;41.240;16.500;2023-04-03T03:38:41;100194.19;;;22.23;68.60
35419;BME280;21525;41.240;16.500;2023-04-03T03:41:08;100195.31;;;21.94;70.87
35419;BME280;21525;41.240;16.500;2023-04-03T03:43:34;100187.72;;;22.15;70.74
35419;BME280;21525;41.240;16.500;2023-04-03T03:46:02;100190.59;;;22.11;69.67
35419;BME280;21525;41.240;16.500;2023-04-03T03:48:27;100191.72;;;21.69;73.96
35419;BME280;21525;41.240;16.500;2023-04-03T03:50:53;100185.81;;;22.17;71.69
35419;BME280;21525;41.240;16.500;2023-04-03T03:53:23;100185.44;;;21.58;75.12
35419;BME280;21525;41.240;16.500;2023-04-03T03:55:52;100200.41;;;21.97;71.59
35419;BME280;21525;41.240;16.500;2023-04-03T03:58:20;100187.09;;;22.24;71.12
35419;BME280;21525;41.240;16.500;2023-04-03T04:00:46;100171.47;;;21.68;73.52
35419;BME280;21525;41.240;16.500;2023-04-03T04:03:12;100177.53;;;21.96;74.36
35419;BME280;21525;41.240;16.500;2023-04-03T04:05:39;100182.88;;;22.08;73.41
35419;BME280;21525;41.240;16.500;2023-04-03T04:08:05;100179.53;;;21.79;75.92
35419;BME280;21525;41.240;16.500;2023-04-03T04:10:31;100178.81;;;22.16;73.10
35419;BME280;21525;41.240;16.500;2023-04-03T04:12:57;100178.09;;;22.13;72.21
35419;BME280;21525;41.240;16.500;2023-04-03T04:15:25;100172.00;;;22.50;71.86
35419;BME280;21525;41.240;16.500;2023-04-03T04:17:52;100182.91;;;21.82;75.80
35419;BME280;21525;41.240;16.500;2023-04-03T04:20:18;100167.19;;;22.31;72.19
35419;BME280;21525;41.240;16.500;2023-04-03T04:22:46;100157.25;;;22.09;72.95
35419;BME280;21525;41.240;16.500;2023-04-03T04:25:11;100154.75;;;21.93;76.23
35419;BME280;21525;41.240;16.500;2023-04-03T04:27:38;100154.13;;;22.77;70.55
35419;BME280;21525;41.240;16.500;2023-04-03T04:30:08;100151.53;;;22.02;76.29
35419;BME280;21525;41.240;16.500;2023-04-03T04:32:44;100153.03;;;22.43;74.29
35419;BME280;21525;41.240;16.500;2023-04-03T04:35:11;100151.50;;;22.28;76.97
35419;BME280;21525;41.240;16.500;2023-04-03T04:37:40;100140.06;;;22.15;75.13
35419;BME280;21525;41.240;16.500;2023-04-03T04:40:07;100147.25;;;22.38;74.24
35419;BME280;21525;41.240;16.500;2023-04-03T04:42:33;100145.78;;;22.21;77.01
35419;BME280;21525;41.240;16.500;2023-04-03T04:44:59;100137.81;;;22.34;75.69
35419;BME280;21525;41.240;16.500;2023-04-03T04:47:25;100135.06;;;22.35;75.51
35419;BME280;21525;41.240;16.500;2023-04-03T04:49:51;100131.94;;;22.54;75.88
35419;BME280;21525;41.240;16.500;2023-04-03T04:52:17;100133.50;;;22.69;74.62
35419;BME280;21525;41.240;16.500;2023-04-03T04:54:42;100136.75;;;22.73;73.71
35419;BME280;21525;41.240;16.500;2023-04-03T04:57:09;100128.06;;;22.22;75.85
35419;BME280;21525;41.240;16.500;2023-04-03T04:59:36;100132.75;;;22.67;71.96
35419;BME280;21525;41.240;16.500;2023-04-03T05:02:02;100127.44;;;22.67;69.47
35419;BME280;21525;41.240;16.500;2023-04-03T05:04:28;100118.91;;;22.75;66.62
35419;BME280;21525;41.240;16.500;2023-04-03T05:07:00;100114.97;;;22.57;68.81
35419;BME280;21525;41.240;16.500;2023-04-03T05:09:28;100120.81;;;22.49;69.75
35419;BME280;21525;41.240;16.500;2023-04-03T05:11:55;100121.25;;;22.79;67.70
35419;BME280;21525;41.240;16.500;2023-04-03T05:14:24;100116.94;;;22.66;68.78
35419;BME280;21525;41.240;16.500;2023-04-03T05:16:51;100121.66;;;23.10;65.72
35419;BME280;21525;41.240;16.500;2023-04-03T05:19:21;100123.25;;;22.52;69.13
35419;BME280;21525;41.240;16.500;2023-04-03T05:21:49;100116.06;;;23.26;65.45
35419;BME280;21525;41.240;16.500;2023-04-03T05:24:16;100117.25;;;22.74;67.41
35419;BME280;21525;41.240;16.500;2023-04-03T05:26:43;100116.56;;;22.46;68.84
35419;BME280;21525;41.240;16.500;2023-04-03T05:29:10;100110.72;;;22.54;69.90
35419;BME280;21525;41.240;16.500;2023-04-03T05:31:36;100115.84;;;22.81;69.04
35419;BME280;21525;41.240;16.500;2023-04-03T05:34:02;100112.44;;;23.27;65.86
35419;BME280;21525;41.240;16.500;2023-04-03T05:36:31;100100.28;;;23.00;65.75
35419;BME280;21525;41.240;16.500;2023-04-03T05:39:01;100106.72;;;22.49;68.60
35419;BME280;21525;41.240;16.500;2023-04-03T05:41:27;100113.97;;;22.34;68.18
35419;BME280;21525;41.240;16.500;2023-04-03T05:43:53;100104.81;;;22.01;69.89
35419;BME280;21525;41.240;16.500;2023-04-03T05:46:20;100098.50;;;21.77;69.99
35419;BME280;21525;41.240;16.500;2023-04-03T05:48:51;100099.38;;;21.39;71.04
35419;BME280;21525;41.240;16.500;2023-04-03T05:51:24;100103.38;;;21.45;70.45
35419;BME280;21525;41.240;16.500;2023-04-03T05:54:04;100098.63;;;21.63;65.03
35419;BME280;21525;41.240;16.500;2023-04-03T05:56:31;100094.38;;;21.86;61.20
35419;BME280;21525;41.240;16.500;2023-04-03T05:58:57;100086.28;;;22.01;60.84
35419;BME280;21525;41.240;16.500;2023-04-03T06:01:23;100078.81;;;22.19;59.40
35419;BME280;21525;41.240;16.500;2023-04-03T06:03:49;100084.22;;;21.29;63.42
35419;BME280;21525;41.240;16.500;2023-04-03T06:06:15;100088.56;;;21.42;64.04
35419;BME280;21525;41.240;16.500;2023-04-03T06:08:41;100083.47;;;21.27;63.96
35419;BME280;21525;41.240;16.500;2023-04-03T06:11:07;100077.16;;;21.67;60.14
35419;BME280;21525;41.240;16.500;2023-04-03T06:13:34;100075.78;;;21.62;59.16
35419;BME280;21525;41.240;16.500;2023-04-03T06:16:00;100066.56;;;21.42;58.23
35419;BME280;21525;41.240;16.500;2023-04-03T06:18:27;100075.22;;;21.31;55.99
35419;BME280;21525;41.240;16.500;2023-04-03T06:20:54;100065.72;;;21.41;55.24
35419;BME280;21525;41.240;16.500;2023-04-03T06:23:20;100082.03;;;21.08;56.59
35419;BME280;21525;41.240;16.500;2023-04-03T06:25:46;100071.41;;;21.48;57.12
35419;BME280;21525;41.240;16.500;2023-04-03T06:28:12;100077.88;;;21.82;57.34
35419;BME280;21525;41.240;16.500;2023-04-03T06:30:38;100083.78;;;22.11;57.20
35419;BME280;21525;41.240;16.500;2023-04-03T06:33:03;100069.28;;;21.91;58.56
35419;BME280;21525;41.240;16.500;2023-04-03T06:35:29;100069.53;;;21.37;59.17
35419;BME280;21525;41.240;16.500;2023-04-03T06:37:56;100074.72;;;21.12;61.18
35419;BME280;21525;41.240;16.500;2023-04-03T06:40:24;100071.88;;;21.15;60.92
35419;BME280;21525;41.240;16.500;2023-04-03T06:42:50;100062.53;;;21.62;60.83
35419;BME280;21525;41.240;16.500;2023-04-03T06:45:17;100074.59;;;21.78;60.17
35419;BME280;21525;41.240;16.500;2023-04-03T06:47:43;100067.56;;;22.28;59.33
35419;BME280;21525;41.240;16.500;2023-04-03T06:50:11;100070.66;;;21.84;60.62
35419;BME280;21525;41.240;16.500;2023-04-03T06:52:37;100061.88;;;22.45;58.99
35419;BME280;21525;41.240;16.500;2023-04-03T06:55:03;100061.16;;;22.07;59.45
35419;BME280;21525;41.240;16.500;2023-04-03T06:57:30;100063.19;;;22.03;59.26
35419;BME280;21525;41.240;16.500;2023-04-03T06:59:56;100078.84;;;22.06;59.25
35419;BME280;21525;41.240;16.500;2023-04-03T07:02:21;100073.81;;;22.88;57.65
35419;BME280;21525;41.240;16.500;2023-04-03T07:04:47;100065.28;;;21.73;58.56
35419;BME280;21525;41.240;16.500;2023-04-03T07:07:13;100074.06;;;22.11;57.63
35419;BME280;21525;41.240;16.500;2023-04-03T07:09:39;100063.38;;;21.62;58.63
35419;BME280;21525;41.240;16.500;2023-04-03T07:12:05;100077.44;;;21.37;59.05
35419;BME280;21525;41.240;16.500;2023-04-03T07:14:31;100067.72;;;21.51;59.62
35419;BME280;21525;41.240;16.500;2023-04-03T07:16:57;100064.56;;;21.71;57.85
35419;BME280;21525;41.240;16.500;2023-04-03T07:19:22;100059.13;;;21.22;59.19
35419;BME280;21525;41.240;16.500;2023-04-03T07:21:49;100070.13;;;21.92;57.21
35419;BME280;21525;41.240;16.500;2023-04-03T07:24:15;100069.53;;;21.75;58.45
35419;BME280;21525;41.240;16.500;2023-04-03T07:26:41;100063.19;;;21.40;61.55
35419;BME280;21525;41.240;16.500;2023-04-03T07:29:07;100071.75;;;21.04;63.99
35419;BME280;21525;41.240;16.500;2023-04-03T07:31:32;100059.25;;;21.58;63.39
35419;BME280;21525;41.240;16.500;2023-04-03T07:33:59;100048.91;;;21.16;62.96
35419;BME280;21525;41.240;16.500;2023-04-03T07:36:25;100057.78;;;21.14;62.56
35419;BME280;21525;41.240;16.500;2023-04-03T07:38:51;100059.38;;;21.44;61.55
35419;BME280;21525;41.240;16.500;2023-04-03T07:41:18;100057.03;;;21.52;61.12
35419;BME280;21525;41.240;16.500;2023-04-03T07:43:47;100061.88;;;21.33;63.18
35419;BME280;21525;41.240;16.500;2023-04-03T07:46:15;100049.56;;;22.21;60.95
35419;BME280;21525;41.240;16.500;2023-04-03T07:48:43;100065.25;;;22.24;60.39
35419;BME280;21525;41.240;16.500;2023-04-03T07:51:09;100064.09;;;21.26;63.86
35419;BME280;21525;41.240;16.500;2023-04-03T07:53:35;100057.28;;;21.09;62.73
35419;BME280;21525;41.240;16.500;2023-04-03T07:56:01;100047.06;;;21.30;63.40
35419;BME280;21525;41.240;16.500;2023-04-03T07:58:28;100037.69;;;21.12;63.95
35419;BME280;21525;41.240;16.500;2023-04-03T08:00:54;100063.38;;;21.50;63.28
35419;BME280;21525;41.240;16.500;2023-04-03T08:03:20;100050.97;;;20.85;62.40
35419;BME280;21525;41.240;16.500;2023-04-03T08:05:47;100048.44;;;21.23;59.42
35419;BME280;21525;41.240;16.500;2023-04-03T08:08:16;100057.66;;;21.30;60.11
35419;BME280;21525;41.240;16.500;2023-04-03T08:10:42;100059.28;;;21.19;60.85
35419;BME280;21525;41.240;16.500;2023-04-03T08:13:08;100050.81;;;21.01;61.87
35419;BME280;21525;41.240;16.500;2023-04-03T08:15:35;100045.84;;;21.09;60.76
35419;BME280;21525;41.240;16.500;2023-04-03T08:18:01;100039.25;;;21.41;59.10
35419;BME280;21525;41.240;16.500;2023-04-03T08:20:27;100054.47;;;21.51;59.86
35419;BME280;21525;41.240;16.500;2023-04-03T08:22:53;100023.38;;;21.29;61.08
35419;BME280;21525;41.240;16.500;2023-04-03T08:25:20;100055.34;;;20.99;61.69
35419;BME280;21525;41.240;16.500;2023-04-03T08:27:46;100020.59;;;20.51;63.44
35419;BME280;21525;41.240;16.500;2023-04-03T08:30:12;100042.72;;;21.29;61.33
35419;BME280;21525;41.240;16.500;2023-04-03T08:32:39;100041.91;;;21.02;62.72
35419;BME280;21525;41.240;16.500;2023-04-03T08:35:07;100037.78;;;20.98;60.72
35419;BME280;21525;41.240;16.500;2023-04-03T08:37:35;100042.78;;;21.15;61.47
35419;BME280;21525;41.240;16.500;2023-04-03T08:40:03;100047.47;;;21.24;61.54
35419;BME280;21525;41.240;16.500;2023-04-03T08:45:15;100052.38;;;21.30;60.80
35419;BME280;21525;41.240;16.500;2023-04-03T08:48:21;100045.13;;;21.20;60.11
35419;BME280;21525;41.240;16.500;2023-04-03T08:50:53;100050.03;;;21.51;59.02
35419;BME280;21525;41.240;16.500;2023-04-03T08:53:22;100049.94;;;21.53;59.59
35419;BME280;21525;41.240;16.500;2023-04-03T08:55:53;100049.22;;;21.76;57.83
35419;BME280;21525;41.240;16.500;2023-04-03T08:58:22;100038.72;;;21.49;58.09
35419;BME280;21525;41.240;16.500;2023-04-03T09:00:57;100035.75;;;20.89;61.13
35419;BME280;21525;41.240;16.500;2023-04-03T09:03:23;100041.00;;;20.76;61.53
35419;BME280;21525;41.240;16.500;2023-04-03T09:05:56;100044.25;;;21.06;61.08
35419;BME280;21525;41.240;16.500;2023-04-03T09:11:31;100056.28;;;20.98;60.64
35419;BME280;21525;41.240;16.500;2023-04-03T09:14:16;100046.19;;;20.77;60.42
35419;BME280;21525;41.240;16.500;2023-04-03T09:16:54;100058.59;;;20.90;59.39
35419;BME280;21525;41.240;16.500;2023-04-03T09:19:38;100038.94;;;21.33;57.38
35419;BME280;21525;41.240;16.500;2023-04-03T09:22:19;100052.16;;;21.46;60.63
35419;BME280;21525;41.240;16.500;2023-04-03T09:24:48;100033.25;;;21.12;60.14
35419;BME280;21525;41.240;16.500;2023-04-03T09:27:15;100034.03;;;20.75;60.55
35419;BME280;21525;41.240;16.500;2023-04-03T09:29:43;100024.91;;;21.06;59.69
35419;BME280;21525;41.240;16.500;2023-04-03T09:32:21;100032.69;;;21.34;60.09
35419;BME280;21525;41.240;16.500;2023-04-03T09:34:52;100040.53;;;21.61;59.94
35419;BME280;21525;41.240;16.500;2023-04-03T09:37:36;100019.69;;;20.92;63.76
35419;BME280;21525;41.240;16.500;2023-04-03T09:40:04;100029.41;;;21.43;59.82
35419;BME280;21525;41.240;16.500;2023-04-03T09:42:32;100045.06;;;21.46;60.50
35419;BME280;21525;41.240;16.500;2023-04-03T09:45:03;100040.59;;;20.82;62.01
35419;BME280;21525;41.240;16.500;2023-04-03T09:47:31;100032.94;;;21.04;61.27
35419;BME280;21525;41.240;16.500;2023-04-03T09:52:47;100050.91;;;21.39;61.89
35419;BME280;21525;41.240;16.500;2023-04-03T09:55:25;100028.97;;;21.24;62.00
35419;BME280;21525;41.240;16.500;2023-04-03T09:58:02;100044.63;;;20.88;63.10
35419;BME280;21525;41.240;16.500;2023-04-03T10:00:37;100041.38;;;21.36;63.98
35419;BME280;21525;41.240;16.500;2023-04-03T10:03:04;100043.91;;;21.51;61.82
35419;BME280;21525;41.240;16.500;2023-04-03T10:05:35;100041.06;;;21.14;62.73
35419;BME280;21525;41.240;16.500;2023-04-03T10:10:47;100053.44;;;21.13;57.22
35419;BME280;21525;41.240;16.500;2023-04-03T10:13:17;100044.66;;;21.65;56.98
35419;BME280;21525;41.240;16.500;2023-04-03T10:15:56;100045.88;;;21.22;60.57
35419;BME280;21525;41.240;16.500;2023-04-03T10:21:31;100047.50;;;21.37;62.22
35419;BME280;21525;41.240;16.500;2023-04-03T10:24:13;100042.78;;;21.15;62.77
35419;BME280;21525;41.240;16.500;2023-04-03T10:34:40;100032.16;;;21.55;60.25
35419;BME280;21525;41.240;16.500;2023-04-03T10:42:39;100020.28;;;22.35;57.19
35419;BME280;21525;41.240;16.500;2023-04-03T10:53:14;100002.06;;;22.54;57.76
35419;BME280;21525;41.240;16.500;2023-04-03T10:58:35;100005.88;;;21.77;60.93
35419;BME280;21525;41.240;16.500;2023-04-03T11:01:08;100005.91;;;22.74;58.59
35419;BME280;21525;41.240;16.500;2023-04-03T11:03:38;100009.00;;;22.44;59.21
35419;BME280;21525;41.240;16.500;2023-04-03T11:06:11;99999.59;;;22.64;58.95
35419;BME280;21525;41.240;16.500;2023-04-03T11:08:44;99995.25;;;22.63;59.20
35419;BME280;21525;41.240;16.500;2023-04-03T11:11:21;99995.56;;;22.10;60.59
35419;BME280;21525;41.240;16.500;2023-04-03T11:16:28;99982.34;;;22.34;59.64
35419;BME280;21525;41.240;16.500;2023-04-03T11:21:31;99966.72;;;22.42;58.48
35419;BME280;21525;41.240;16.500;2023-04-03T11:24:02;99982.16;;;22.72;57.99
35419;BME280;21525;41.240;16.500;2023-04-03T11:26:35;99973.28;;;22.85;56.23
35419;BME280;21525;41.240;16.500;2023-04-03T11:29:06;99955.91;;;22.22;57.93
35419;BME280;21525;41.240;16.500;2023-04-03T11:34:51;99977.31;;;22.66;58.65
35419;BME280;21525;41.240;16.500;2023-04-03T11:37:35;99963.75;;;22.82;56.95
35419;BME280;21525;41.240;16.500;2023-04-03T11:40:16;99973.56;;;22.93;56.79
35419;BME280;21525;41.240;16.500;2023-04-03T11:43:07;99954.66;;;22.15;58.39
35419;BME280;21525;41.240;16.500;2023-04-03T11:45:55;99947.72;;;22.25;58.52
35419;BME280;21525;41.240;16.500;2023-04-03T11:53:53;99957.59;;;22.23;58.19
35419;BME280;21525;41.240;16.500;2023-04-03T12:01:52;99966.16;;;23.31;54.92
35419;BME280;21525;41.240;16.500;2023-04-03T12:04:20;99950.34;;;23.41;53.72
35419;BME280;21525;41.240;16.500;2023-04-03T12:09:27;99960.88;;;23.87;54.16
35419;BME280;21525;41.240;16.500;2023-04-03T12:11:55;99956.25;;;23.22;53.73
35419;BME280;21525;41.240;16.500;2023-04-03T12:14:23;99963.03;;;23.82;54.57
35419;BME280;21525;41.240;16.500;2023-04-03T12:16:52;99961.59;;;23.89;54.43
35419;BME280;21525;41.240;16.500;2023-04-03T12:19:32;99972.00;;;23.59;54.06
35419;BME280;21525;41.240;16.500;2023-04-03T12:24:27;99972.03;;;23.01;56.91
35419;BME280;21525;41.240;16.500;2023-04-03T12:34:55;99951.91;;;23.21;54.01
35419;BME280;21525;41.240;16.500;2023-04-03T12:37:29;99967.78;;;22.64;54.59
35419;BME280;21525;41.240;16.500;2023-04-03T12:45:17;99947.63;;;23.65;52.37
35419;BME280;21525;41.240;16.500;2023-04-03T12:47:45;99950.88;;;22.89;53.84
35419;BME280;21525;41.240;16.500;2023-04-03T12:53:05;99938.19;;;23.38;52.57
35419;BME280;21525;41.240;16.500;2023-04-03T12:55:32;99946.13;;;23.27;51.83
35419;BME280;21525;41.240;16.500;2023-04-03T12:58:16;99932.47;;;23.09;52.12
35419;BME280;21525;41.240;16.500;2023-04-03T13:00:42;99943.66;;;22.56;53.01
35419;BME280;21525;41.240;16.500;2023-04-03T13:03:22;99935.44;;;22.83;52.09
35419;BME280;21525;41.240;16.500;2023-04-03T13:05:50;99928.63;;;23.47;50.88
35419;BME280;21525;41.240;16.500;2023-04-03T13:08:17;99923.31;;;22.91;51.48
35419;BME280;21525;41.240;16.500;2023-04-03T13:10:58;99927.06;;;23.11;52.09
35419;BME280;21525;41.240;16.500;2023-04-03T13:13:25;99916.00;;;23.28;51.64
35419;BME280;21525;41.240;16.500;2023-04-03T13:15:52;99914.31;;;23.38;50.56
35419;BME280;21525;41.240;16.500;2023-04-03T13:18:30;99925.44;;;22.86;50.99
35419;BME280;21525;41.240;16.500;2023-04-03T13:21:06;99924.69;;;23.30;50.39
35419;BME280;21525;41.240;16.500;2023-04-03T13:23:35;99918.63;;;23.39;50.81
35419;BME280;21525;41.240;16.500;2023-04-03T13:26:05;99923.78;;;22.96;51.35
35419;BME280;21525;41.240;16.500;2023-04-03T13:28:33;99919.81;;;23.13;49.86
35419;BME280;21525;41.240;16.500;2023-04-03T13:33:34;99909.44;;;23.10;49.76
35419;BME280;21525;41.240;16.500;2023-04-03T13:36:04;99906.72;;;22.76;49.89
35419;BME280;21525;41.240;16.500;2023-04-03T13:38:32;99903.50;;;22.84;49.97
35419;BME280;21525;41.240;16.500;2023-04-03T13:41:05;99895.47;;;23.19;49.46
35419;BME280;21525;41.240;16.500;2023-04-03T13:43:34;99915.50;;;23.01;49.90
35419;BME280;21525;41.240;16.500;2023-04-03T13:48:45;99884.81;;;22.39;51.59
35419;BME280;21525;41.240;16.500;2023-04-03T13:53:48;99891.72;;;23.44;50.76
35419;BME280;21525;41.240;16.500;2023-04-03T13:56:21;99871.97;;;23.03;50.75
35419;BME280;21525;41.240;16.500;2023-04-03T13:58:58;99880.69;;;22.70;50.78
35419;BME280;21525;41.240;16.500;2023-04-03T14:01:25;99887.75;;;23.16;50.48
35419;BME280;21525;41.240;16.500;2023-04-03T14:04:00;99877.72;;;22.51;51.42
35419;BME280;21525;41.240;16.500;2023-04-03T14:06:26;99896.44;;;22.61;51.60
35419;BME280;21525;41.240;16.500;2023-04-03T14:08:52;99888.66;;;22.70;50.83
35419;BME280;21525;41.240;16.500;2023-04-03T14:11:24;99886.47;;;22.64;50.57
35419;BME280;21525;41.240;16.500;2023-04-03T14:13:52;99865.66;;;22.82;50.07
35419;BME280;21525;41.240;16.500;2023-04-03T14:16:22;99882.28;;;22.14;51.79
35419;BME280;21525;41.240;16.500;2023-04-03T14:18:49;99875.84;;;22.64;50.86